Time;durP1;ratioP1;P1;durP2;ratioP2;P2;SDS_P1;SDS_P2;PMS_P1;PMS_P2;Temp;Humidity;BMP_temperature;BMP_pressure;BME280_temperature;BME280_humidity;BME280_pressure;Samples;Min_cycle;Max_cycle;Signal;HPM_P1;HPM_P2
2023/07/13 00:01:49;;;;;;;0.75;0.40;;;;;;;29.99;36.75;101320.53;4989823;28;97575;-82
2023/07/13 00:04:18;;;;;;;0.77;0.60;;;;;;;29.98;36.23;101327.16;4990028;28;96860;-82
2023/07/13 00:06:46;;;;;;;1.00;0.70;;;;;;;29.99;36.30;101331.63;4972736;28;96934;-82
2023/07/13 00:09:16;;;;;;;0.50;0.40;;;;;;;29.97;36.35;101333.75;4989256;28;96839;-82
2023/07/13 00:11:44;;;;;;;0.68;0.57;;;;;;;29.97;36.35;101334.59;4971329;28;97090;-82
2023/07/13 00:14:11;;;;;;;1.40;0.85;;;;;;;29.97;36.46;101323.53;4958135;28;96585;-83
2023/07/13 00:16:40;;;;;;;0.82;0.50;;;;;;;29.97;36.25;101326.31;4988965;28;96991;-82
2023/07/13 00:19:07;;;;;;;0.73;0.47;;;;;;;29.97;36.25;101325.44;4988794;28;99735;-82
2023/07/13 00:21:34;;;;;;;0.50;0.40;;;;;;;29.97;36.58;101322.69;4991138;28;97815;-82
2023/07/13 00:24:01;;;;;;;1.00;0.50;;;;;;;29.96;36.37;101332.06;4988842;28;96732;-83
2023/07/13 00:26:28;;;;;;;0.57;0.38;;;;;;;29.96;36.42;101335.69;4987726;28;97367;-83
2023/07/13 00:28:55;;;;;;;0.70;0.50;;;;;;;29.95;36.52;101336.75;4970988;28;98382;-82
2023/07/13 00:31:21;;;;;;;0.80;0.50;;;;;;;29.95;36.25;101336.75;4993729;28;97068;-83
2023/07/13 00:33:49;;;;;;;0.75;0.52;;;;;;;29.95;36.55;101338.69;4986506;28;97028;-83
2023/07/13 00:36:16;;;;;;;0.98;0.70;;;;;;;29.95;36.36;101338.69;4986074;28;97375;-82
2023/07/13 00:38:42;;;;;;;0.95;0.50;;;;;;;29.95;36.53;101335.91;4987960;28;97885;-82
2023/07/13 00:41:10;;;;;;;0.73;0.47;;;;;;;29.94;36.41;101336.97;4990833;28;99949;-82
2023/07/13 00:43:37;;;;;;;0.75;0.63;;;;;;;29.94;36.41;101340.59;4991637;28;96852;-85
2023/07/13 00:46:39;;;;;;;0.63;0.45;;;;;;;29.94;36.55;101339.75;4968149;28;96587;-82
2023/07/13 00:49:19;;;;;;;0.50;0.30;;;;;;;29.93;36.54;101324.22;4970133;28;98502;-82
2023/07/13 00:51:50;;;;;;;0.98;0.40;;;;;;;29.91;36.53;101323.59;4974872;28;96679;-83
2023/07/13 00:54:29;;;;;;;0.55;0.40;;;;;;;29.91;36.38;101327.19;4991863;28;96783;-82
2023/07/13 00:56:59;;;;;;;0.73;0.50;;;;;;;29.90;36.44;101332.97;4988734;28;96920;-82
2023/07/13 00:59:27;;;;;;;0.57;0.40;;;;;;;29.90;36.66;101335.72;4980780;28;98679;-82
2023/07/13 01:01:54;;;;;;;0.57;0.40;;;;;;;29.89;36.45;101337.66;4974476;28;96946;-82
2023/07/13 01:04:24;;;;;;;1.35;0.60;;;;;;;29.90;36.33;101339.34;4979277;28;96828;-83
2023/07/13 01:06:52;;;;;;;0.38;0.30;;;;;;;29.89;36.46;101337.66;4962745;28;96914;-82
2023/07/13 01:09:20;;;;;;;0.65;0.60;;;;;;;29.89;36.39;101340.44;4981991;28;96846;-82
2023/07/13 01:11:48;;;;;;;0.40;0.40;;;;;;;29.89;36.61;101345.97;4962465;28;99694;-82
2023/07/13 01:14:16;;;;;;;0.57;0.40;;;;;;;29.89;36.56;101339.56;4974008;28;97657;-82
2023/07/13 01:16:47;;;;;;;1.35;0.50;;;;;;;29.90;36.75;101344.03;4989454;28;96797;-82
2023/07/13 01:19:38;;;;;;;0.90;0.50;;;;;;;29.89;36.48;101340.44;4973547;28;100254;-82
2023/07/13 01:22:11;;;;;;;0.60;0.50;;;;;;;29.87;36.57;101347.25;4990314;28;97715;-84
2023/07/13 01:24:41;;;;;;;0.60;0.40;;;;;;;29.87;36.50;101342.56;4970992;28;96798;-82
2023/07/13 01:27:09;;;;;;;0.60;0.40;;;;;;;29.86;36.46;101342.78;4973649;28;97002;-84
2023/07/13 01:29:43;;;;;;;0.80;0.40;;;;;;;29.87;36.59;101350.03;4971694;28;96922;-82
2023/07/13 01:32:16;;;;;;;0.60;0.30;;;;;;;29.86;36.57;101340.88;4988467;28;97497;-82
2023/07/13 01:34:43;;;;;;;0.85;0.50;;;;;;;29.86;36.72;101335.34;4984683;28;96850;-81
2023/07/13 01:37:11;;;;;;;0.73;0.60;;;;;;;29.86;36.63;101338.09;4968530;28;96865;-82
2023/07/13 01:39:38;;;;;;;0.77;0.43;;;;;;;29.86;36.62;101340.03;4973296;28;97805;-82
2023/07/13 01:42:06;;;;;;;0.55;0.30;;;;;;;29.85;36.68;101338.34;4989745;28;97120;-82
2023/07/13 01:44:33;;;;;;;0.60;0.43;;;;;;;29.86;36.75;101338.09;4971918;28;96741;-82
2023/07/13 01:47:01;;;;;;;0.52;0.40;;;;;;;29.85;36.39;101333.63;4986494;28;97207;-82
2023/07/13 01:49:28;;;;;;;0.55;0.50;;;;;;;29.85;36.80;101341.09;4968817;28;100215;-82
2023/07/13 01:51:54;;;;;;;0.70;0.40;;;;;;;29.84;36.62;101347.72;4966295;28;99246;-82
2023/07/13 01:54:21;;;;;;;0.57;0.40;;;;;;;29.84;36.54;101343.03;4984486;28;96794;-83
2023/07/13 01:56:49;;;;;;;0.60;0.40;;;;;;;29.84;36.70;101342.16;4971329;28;96922;-81
2023/07/13 01:59:16;;;;;;;0.80;0.60;;;;;;;29.84;36.56;101343.03;4971431;28;98588;-82
2023/07/13 02:01:43;;;;;;;0.60;0.40;;;;;;;29.82;36.55;101331.31;4989390;28;97038;-81
2023/07/13 02:04:10;;;;;;;0.57;0.40;;;;;;;29.84;36.54;101342.16;4989464;28;96728;-82
2023/07/13 02:06:37;;;;;;;0.65;0.50;;;;;;;29.84;36.62;101344.94;4972249;28;96721;-81
2023/07/13 02:09:03;;;;;;;0.50;0.43;;;;;;;29.83;36.45;101343.25;4988703;28;97007;-81
2023/07/13 02:11:33;;;;;;;0.90;0.40;;;;;;;29.83;36.35;101344.09;4989324;28;96827;-82
2023/07/13 02:14:01;;;;;;;0.63;0.40;;;;;;;29.82;36.57;101344.31;4988932;28;96921;-82
2023/07/13 02:16:29;;;;;;;0.70;0.50;;;;;;;29.82;36.48;101341.53;4989209;28;97058;-83
2023/07/13 02:18:56;;;;;;;0.65;0.35;;;;;;;29.81;36.71;101350.94;4988154;28;96965;-82
2023/07/13 02:21:23;;;;;;;0.40;0.30;;;;;;;29.81;36.72;101346.25;4972340;28;98011;-82
2023/07/13 02:23:52;;;;;;;0.73;0.32;;;;;;;29.80;36.52;101344.53;4971443;28;96730;-83
2023/07/13 02:26:19;;;;;;;0.30;0.30;;;;;;;29.80;36.58;101332.63;4988682;28;96772;-82
2023/07/13 02:28:47;;;;;;;0.60;0.50;;;;;;;29.80;36.60;101340.91;4986555;28;97069;-82
2023/07/13 02:31:15;;;;;;;0.43;0.40;;;;;;;29.79;36.47;101334.53;4990144;28;97436;-81
2023/07/13 02:33:42;;;;;;;0.47;0.40;;;;;;;29.79;36.24;101340.06;4969881;28;96711;-82
2023/07/13 02:36:10;;;;;;;0.50;0.35;;;;;;;29.80;36.49;101332.63;4966840;28;96950;-82
2023/07/13 02:38:38;;;;;;;0.75;0.45;;;;;;;29.78;36.53;101341.16;4978192;28;99595;-82
2023/07/13 02:41:08;;;;;;;0.40;0.35;;;;;;;29.78;36.59;101343.91;4989384;28;99039;-81
2023/07/13 02:43:35;;;;;;;0.70;0.50;;;;;;;29.78;36.53;101346.69;4990673;28;96617;-82
2023/07/13 02:46:06;;;;;;;0.63;0.40;;;;;;;29.77;36.50;101347.75;4972836;28;96732;-82
2023/07/13 02:48:36;;;;;;;0.50;0.40;;;;;;;29.77;36.53;101349.69;4979581;28;97359;-82
2023/07/13 02:51:03;;;;;;;0.47;0.38;;;;;;;29.76;36.51;101351.59;4973268;28;99131;-83
2023/07/13 02:53:30;;;;;;;0.70;0.40;;;;;;;29.77;36.55;101352.44;4971298;28;97269;-82
2023/07/13 02:55:57;;;;;;;0.40;0.40;;;;;;;29.77;36.77;101349.69;4972515;28;96822;-82
2023/07/13 02:58:23;;;;;;;0.60;0.40;;;;;;;29.77;36.67;101363.53;4987381;28;97801;-82
2023/07/13 03:00:51;;;;;;;0.40;0.38;;;;;;;29.76;36.25;101354.38;4988361;28;98929;-81
2023/07/13 03:03:17;;;;;;;0.40;0.30;;;;;;;29.77;36.59;101360.75;4992702;28;96817;-82
2023/07/13 03:05:49;;;;;;;0.30;0.30;;;;;;;29.75;36.55;101355.44;4989395;28;96980;-82
2023/07/13 03:08:18;;;;;;;;;;;;;;;29.71;36.63;101354.16;4988412;28;98093;-82
2023/07/13 03:10:47;;;;;;;0.70;0.40;;;;;;;29.70;36.57;101364.38;4983507;28;96802;-82
2023/07/13 03:13:14;;;;;;;0.57;0.40;;;;;;;29.71;36.46;101366.06;4971247;28;96840;-82
2023/07/13 03:15:42;;;;;;;0.50;0.40;;;;;;;29.72;36.76;101369.69;4970463;28;96973;-82
2023/07/13 03:18:09;;;;;;;0.47;0.30;;;;;;;29.72;36.76;101369.69;4987730;28;96912;-82
2023/07/13 03:20:35;;;;;;;0.68;0.35;;;;;;;29.72;36.79;101370.53;4972134;28;99683;-83
2023/07/13 03:23:03;;;;;;;0.40;0.30;;;;;;;29.72;36.86;101359.47;4986419;28;96720;-82
2023/07/13 03:25:30;;;;;;;0.60;0.50;;;;;;;29.73;36.71;101371.41;4971328;28;96779;-82
2023/07/13 03:27:59;;;;;;;0.90;0.40;;;;;;;29.72;36.91;101372.47;4966526;28;99060;-82
2023/07/13 03:30:26;;;;;;;0.60;0.47;;;;;;;29.72;36.57;101367.78;4988128;28;97328;-82
2023/07/13 03:32:53;;;;;;;0.50;0.40;;;;;;;29.70;36.96;101369.91;4968509;28;97389;-82
2023/07/13 03:35:20;;;;;;;0.60;0.43;;;;;;;29.71;36.45;101365.22;4970058;28;97148;-83
2023/07/13 03:37:47;;;;;;;0.80;0.50;;;;;;;29.71;36.50;101374.38;4968140;28;100325;-82
2023/07/13 03:40:19;;;;;;;0.50;0.30;;;;;;;29.69;36.31;101378.44;4970475;28;96855;-82
2023/07/13 03:42:45;;;;;;;0.60;0.43;;;;;;;29.70;36.73;101381.00;4970846;28;98670;-82
2023/07/13 03:45:15;;;;;;;0.30;0.20;;;;;;;29.69;36.30;101379.28;4971478;28;96702;-82
2023/07/13 03:47:42;;;;;;;0.50;0.43;;;;;;;29.70;36.41;101372.69;4971678;28;99406;-82
2023/07/13 03:50:09;;;;;;;0.60;0.40;;;;;;;29.70;36.61;101382.91;4984950;28;99638;-82
2023/07/13 03:52:35;;;;;;;0.30;0.30;;;;;;;29.70;36.53;101389.28;4976664;28;96451;-82
2023/07/13 03:55:02;;;;;;;0.30;0.30;;;;;;;29.69;36.63;101390.38;4984580;28;96847;-82
2023/07/13 03:57:29;;;;;;;0.57;0.40;;;;;;;29.70;36.70;101393.97;4971478;28;100109;-82
2023/07/13 03:59:57;;;;;;;0.30;0.22;;;;;;;29.68;36.63;101394.19;4985628;28;96649;-82
2023/07/13 04:02:24;;;;;;;0.50;0.40;;;;;;;29.69;36.52;101393.13;4970863;28;96686;-81
2023/07/13 04:04:50;;;;;;;0.50;0.30;;;;;;;29.67;36.91;101392.50;4984422;28;97071;-82
2023/07/13 04:07:17;;;;;;;0.50;0.30;;;;;;;29.68;36.73;101394.19;4987458;28;98655;-82
2023/07/13 04:09:44;;;;;;;0.40;0.30;;;;;;;29.68;36.62;101396.97;4991220;28;96839;-82
2023/07/13 04:12:11;;;;;;;0.50;0.30;;;;;;;29.67;36.66;101397.19;4972547;28;96718;-83
2023/07/13 04:14:37;;;;;;;0.40;0.30;;;;;;;29.67;36.54;101394.44;4972470;28;96886;-82
2023/07/13 04:17:04;;;;;;;0.40;0.30;;;;;;;29.67;36.66;101400.81;4990983;28;96759;-83
2023/07/13 04:19:31;;;;;;;0.52;0.40;;;;;;;29.68;36.59;101404.44;4990923;28;96877;-83
2023/07/13 04:21:57;;;;;;;0.98;0.30;;;;;;;29.67;36.52;101402.72;4990906;28;96950;-82
2023/07/13 04:24:24;;;;;;;0.40;0.30;;;;;;;29.66;36.59;101401.88;4971018;28;97314;-82
2023/07/13 04:26:50;;;;;;;0.90;0.38;;;;;;;29.66;36.74;101401.88;4985265;28;98308;-82
2023/07/13 04:29:17;;;;;;;0.47;0.40;;;;;;;29.65;36.53;101408.50;4988569;28;96723;-84
2023/07/13 04:31:43;;;;;;;0.32;0.30;;;;;;;29.66;36.61;101406.56;4973836;28;96692;-82
2023/07/13 04:34:10;;;;;;;0.50;0.40;;;;;;;29.65;36.74;101416.78;4963778;28;97235;-82
2023/07/13 04:36:37;;;;;;;0.40;0.30;;;;;;;29.66;36.67;101409.34;4966319;28;96720;-82
2023/07/13 04:39:04;;;;;;;0.80;0.50;;;;;;;29.65;36.61;101408.50;4988433;28;99864;-82
2023/07/13 04:41:31;;;;;;;0.73;0.30;;;;;;;29.66;36.78;101420.41;4971800;28;97795;-82
2023/07/13 04:43:57;;;;;;;0.57;0.30;;;;;;;29.65;36.87;101418.72;4970671;28;97091;-82
2023/07/13 04:46:24;;;;;;;0.47;0.35;;;;;;;29.65;36.67;101419.56;4988425;28;96657;-82
2023/07/13 04:48:53;;;;;;;0.75;0.40;;;;;;;29.65;36.43;101424.25;4974058;28;97388;-81
2023/07/13 04:51:21;;;;;;;0.55;0.40;;;;;;;29.65;36.52;101429.78;4969561;28;96877;-83
2023/07/13 04:53:47;;;;;;;0.47;0.40;;;;;;;29.64;36.73;101425.31;4982745;28;97298;-82
2023/07/13 04:56:14;;;;;;;0.40;0.30;;;;;;;29.63;36.49;101430.00;4989485;28;96919;-80
2023/07/13 04:58:40;;;;;;;0.60;0.50;;;;;;;29.65;36.58;101429.78;4971341;28;99300;-79
2023/07/13 05:01:08;;;;;;;0.50;0.38;;;;;;;29.64;36.83;101425.31;4988935;28;97114;-82
2023/07/13 05:03:36;;;;;;;0.50;0.30;;;;;;;29.63;36.66;101427.25;4991626;28;97556;-83
2023/07/13 05:06:05;;;;;;;0.50;0.30;;;;;;;29.63;36.71;101435.53;4991853;28;98675;-82
2023/07/13 05:08:32;;;;;;;0.63;0.50;;;;;;;29.63;36.54;101435.53;4995618;28;97581;-84
2023/07/13 05:11:00;;;;;;;0.40;0.30;;;;;;;29.63;36.55;101437.47;4990264;28;97195;-82
2023/07/13 05:13:27;;;;;;;0.65;0.40;;;;;;;29.64;36.71;101436.41;4989875;28;96873;-82
2023/07/13 05:15:58;;;;;;;0.52;0.38;;;;;;;29.63;36.60;101441.06;4990147;28;101169;-82
2023/07/13 05:18:25;;;;;;;0.77;0.35;;;;;;;29.63;36.75;101443.84;4973915;28;98866;-82
2023/07/13 05:21:05;;;;;;;0.57;0.30;;;;;;;29.63;36.92;101446.63;4989461;28;96694;-82
2023/07/13 05:23:33;;;;;;;0.70;0.40;;;;;;;29.61;36.60;101443.22;4989914;28;97101;-82
2023/07/13 05:26:00;;;;;;;0.63;0.40;;;;;;;29.62;36.37;101449.59;4972433;28;96969;-82
2023/07/13 05:28:28;;;;;;;0.50;0.30;;;;;;;29.61;36.72;101448.75;4989931;28;97865;-83
2023/07/13 05:30:56;;;;;;;0.45;0.30;;;;;;;29.61;36.67;101451.53;4964681;28;96870;-83
2023/07/13 05:33:24;;;;;;;0.57;0.35;;;;;;;29.61;36.73;101454.28;4968250;28;96790;-85
2023/07/13 05:35:51;;;;;;;0.50;0.30;;;;;;;29.61;36.54;101457.06;4973728;28;98355;-83
2023/07/13 05:38:17;;;;;;;0.90;0.30;;;;;;;29.61;36.33;101456.22;4972219;28;97960;-82
2023/07/13 05:40:45;;;;;;;0.80;0.50;;;;;;;29.61;36.44;101462.59;4989438;28;96653;-82
2023/07/13 05:43:12;;;;;;;0.50;0.40;;;;;;;29.60;36.66;101469.19;4989941;28;97365;-82
2023/07/13 05:45:39;;;;;;;0.50;0.50;;;;;;;29.60;36.78;101468.34;4972877;28;99286;-82
2023/07/13 05:48:06;;;;;;;0.60;0.40;;;;;;;29.61;36.59;101481.13;4989319;28;97037;-82
2023/07/13 05:50:32;;;;;;;0.75;0.40;;;;;;;29.60;36.74;101479.41;4969735;28;97119;-82
2023/07/13 05:52:59;;;;;;;0.57;0.30;;;;;;;29.60;36.72;101477.50;4984772;28;97206;-84
2023/07/13 05:55:25;;;;;;;0.50;0.30;;;;;;;29.60;36.66;101476.66;4991304;28;97047;-82
2023/07/13 05:57:52;;;;;;;0.40;0.22;;;;;;;29.61;36.80;101487.50;4990766;28;96673;-82
2023/07/13 06:00:19;;;;;;;0.45;0.40;;;;;;;29.59;36.61;101478.56;4967963;28;97409;-83
2023/07/13 06:02:45;;;;;;;0.40;0.35;;;;;;;29.59;36.47;101483.25;4971548;28;97015;-83
2023/07/13 06:05:12;;;;;;;0.52;0.52;;;;;;;29.59;36.39;101486.88;4989354;28;96913;-83
2023/07/13 06:07:39;;;;;;;0.30;0.30;;;;;;;29.59;36.50;101486.88;4973570;28;96769;-82
2023/07/13 06:10:06;;;;;;;0.40;0.30;;;;;;;29.59;36.64;101489.66;4988566;28;96745;-82
2023/07/13 06:12:32;;;;;;;0.40;0.20;;;;;;;29.60;36.54;101496.88;4989800;28;96715;-82
2023/07/13 06:14:59;;;;;;;0.80;0.40;;;;;;;29.59;36.58;101495.19;4982402;28;99100;-82
2023/07/13 06:17:25;;;;;;;1.10;0.57;;;;;;;29.59;36.55;101495.19;4988970;28;97105;-82
2023/07/13 06:19:52;;;;;;;0.70;0.40;;;;;;;29.59;36.46;101497.09;4973596;28;96928;-82
2023/07/13 06:22:19;;;;;;;0.50;0.30;;;;;;;29.59;36.41;101500.72;4972120;28;96715;-81
2023/07/13 06:24:45;;;;;;;0.57;0.30;;;;;;;29.59;36.58;101505.41;4985584;28;97873;-83
2023/07/13 06:27:12;;;;;;;0.82;0.50;;;;;;;29.59;36.60;101505.41;4984980;28;96681;-82
2023/07/13 06:29:39;;;;;;;1.00;0.57;;;;;;;29.59;36.69;101508.16;4982165;28;96917;-81
2023/07/13 06:32:06;;;;;;;0.40;0.30;;;;;;;29.59;36.45;101511.78;4982794;28;97001;-83
2023/07/13 06:34:33;;;;;;;0.70;0.45;;;;;;;29.59;36.45;101513.72;4968151;28;98547;-82
2023/07/13 06:37:00;;;;;;;0.25;0.20;;;;;;;29.57;36.45;101511.16;4988747;28;96811;-83
2023/07/13 06:39:26;;;;;;;0.65;0.40;;;;;;;29.59;36.51;101514.56;4990969;28;97014;-82
2023/07/13 06:41:53;;;;;;;0.75;0.50;;;;;;;29.57;36.36;101508.38;4972704;28;97958;-82
2023/07/13 06:44:19;;;;;;;0.50;0.40;;;;;;;29.59;36.49;101510.94;4983204;28;98245;-82
2023/07/13 06:46:46;;;;;;;0.77;0.50;;;;;;;29.59;36.56;101505.41;4984578;28;98857;-83
2023/07/13 06:49:13;;;;;;;0.50;0.30;;;;;;;29.59;36.45;101508.16;4987919;28;96712;-82
2023/07/13 06:51:39;;;;;;;0.50;0.40;;;;;;;29.58;36.72;101503.69;4973455;28;96518;-82
2023/07/13 06:54:06;;;;;;;0.30;0.30;;;;;;;29.57;36.53;101508.38;4973378;28;98985;-81
2023/07/13 06:56:32;;;;;;;0.32;0.30;;;;;;;29.58;36.46;101515.63;4974156;28;98822;-82
2023/07/13 06:58:59;;;;;;;0.55;0.30;;;;;;;29.57;36.42;101519.47;4986092;28;98649;-82
2023/07/13 07:01:26;;;;;;;0.47;0.30;;;;;;;29.57;36.46;101519.47;4985459;28;97466;-82
2023/07/13 07:03:53;;;;;;;0.40;0.30;;;;;;;29.60;36.51;101518.19;4995543;28;99963;-83
2023/07/13 07:06:25;;;;;;;0.60;0.40;;;;;;;29.59;36.68;101527.56;4992352;28;96632;-81
2023/07/13 07:08:52;;;;;;;0.63;0.32;;;;;;;29.58;36.61;101523.06;4995314;28;96681;-81
2023/07/13 07:11:23;;;;;;;0.30;0.30;;;;;;;29.59;36.51;101528.41;4982462;28;97058;-82
2023/07/13 07:13:51;;;;;;;0.38;0.30;;;;;;;29.57;36.83;101530.53;4977641;28;99138;-82
2023/07/13 07:16:19;;;;;;;0.63;0.40;;;;;;;29.58;36.62;101531.38;4985028;28;98401;-83
2023/07/13 07:18:46;;;;;;;0.75;0.30;;;;;;;29.57;36.58;101527.75;4975782;28;98376;-82
2023/07/13 07:21:13;;;;;;;0.40;0.40;;;;;;;29.57;36.57;101529.69;4973995;28;97158;-83
2023/07/13 07:23:40;;;;;;;0.40;0.30;;;;;;;29.56;36.74;101539.91;4965380;28;96801;-82
2023/07/13 07:26:08;;;;;;;0.50;0.40;;;;;;;29.56;36.33;101537.13;4976361;28;96755;-82
2023/07/13 07:28:36;;;;;;;0.40;0.30;;;;;;;29.57;36.53;101538.84;4971816;28;96767;-84
2023/07/13 07:31:05;;;;;;;0.65;0.40;;;;;;;29.57;36.64;101541.59;4976760;28;98125;-84
2023/07/13 07:33:34;;;;;;;0.77;0.40;;;;;;;29.56;36.47;101534.38;4976410;28;99355;-82
2023/07/13 07:36:03;;;;;;;0.50;0.40;;;;;;;29.59;36.43;101544.16;4982914;28;96797;-83
2023/07/13 07:38:32;;;;;;;0.63;0.52;;;;;;;29.57;36.70;101544.38;4993866;28;96647;-82
2023/07/13 07:41:02;;;;;;;0.47;0.30;;;;;;;29.57;36.63;101549.91;4967355;28;96918;-81
2023/07/13 07:43:32;;;;;;;0.55;0.30;;;;;;;29.57;36.57;101551.81;4984338;28;96688;-82
2023/07/13 07:45:59;;;;;;;0.30;0.25;;;;;;;29.56;36.55;101539.91;4984354;28;96711;-82
2023/07/13 07:48:29;;;;;;;0.40;0.30;;;;;;;29.56;36.47;101541.81;4968454;28;96852;-82
2023/07/13 07:50:55;;;;;;;0.47;0.30;;;;;;;29.56;36.45;101547.34;4991146;28;96911;-84
2023/07/13 07:53:22;;;;;;;0.45;0.30;;;;;;;29.57;36.70;101546.28;4967887;28;97837;-82
2023/07/13 07:55:49;;;;;;;0.60;0.40;;;;;;;29.57;36.52;101549.06;4982362;28;96673;-81
2023/07/13 07:58:18;;;;;;;0.35;0.28;;;;;;;29.56;36.39;101545.44;4982165;28;97110;-82
2023/07/13 08:00:48;;;;;;;0.40;0.30;;;;;;;29.57;36.74;101551.81;4987099;28;96819;-82
2023/07/13 08:03:17;;;;;;;0.30;0.30;;;;;;;29.56;36.58;101548.22;4990273;28;96792;-82
2023/07/13 08:05:46;;;;;;;0.50;0.35;;;;;;;29.57;36.51;101546.28;4984879;28;97379;-82
2023/07/13 08:08:34;;;;;;;0.38;0.32;;;;;;;29.56;36.59;101559.28;4990267;28;96796;-82
2023/07/13 08:11:08;;;;;;;0.65;0.52;;;;;;;29.56;36.39;101550.97;4989638;28;96673;-83
2023/07/13 08:13:38;;;;;;;0.88;0.80;;;;;;;29.56;36.59;101550.13;4982145;28;97411;-83
2023/07/13 08:16:05;;;;;;;0.85;0.43;;;;;;;29.56;36.53;101550.97;4973020;28;98503;-82
2023/07/13 08:18:32;;;;;;;0.65;0.32;;;;;;;29.57;36.69;101546.28;4972883;28;96650;-82
2023/07/13 08:21:06;;;;;;;0.50;0.43;;;;;;;29.57;36.45;101549.06;4973985;28;96646;-82
2023/07/13 08:23:34;;;;;;;0.30;0.30;;;;;;;29.56;36.46;101541.81;4955958;28;98204;-81
2023/07/13 08:26:02;;;;;;;0.43;0.40;;;;;;;29.57;36.35;101549.91;4986198;28;97083;-82
2023/07/13 08:28:29;;;;;;;0.38;0.30;;;;;;;29.57;36.83;101544.38;4996482;28;97376;-82
2023/07/13 08:31:00;;;;;;;0.47;0.40;;;;;;;29.57;36.57;101536.06;4985855;28;96931;-83
2023/07/13 08:33:27;;;;;;;0.95;0.30;;;;;;;29.57;36.51;101536.06;5001979;28;98187;-83
2023/07/13 08:35:53;;;;;;;0.40;0.30;;;;;;;29.58;36.39;101536.91;4991714;28;96738;-81
2023/07/13 08:38:20;;;;;;;0.38;0.30;;;;;;;29.57;36.38;101538.84;4991222;28;97020;-81
2023/07/13 08:40:55;;;;;;;1.00;0.50;;;;;;;29.59;36.38;101536.69;4996506;28;96705;-83
2023/07/13 08:43:34;;;;;;;;;;;;;;;29.53;36.51;101537.56;4959467;28;98119;-84
2023/07/13 08:46:19;;;;;;;0.52;0.40;;;;;;;29.54;36.36;101536.50;4985408;28;97323;-82
2023/07/13 08:49:19;;;;;;;0.60;0.43;;;;;;;29.54;36.48;101539.28;4962523;28;96871;-82
2023/07/13 08:51:53;;;;;;;0.47;0.40;;;;;;;29.54;36.42;101541.19;4974522;28;97302;-82
2023/07/13 08:54:44;;;;;;;0.38;0.30;;;;;;;29.56;36.56;101544.59;4971576;28;96811;-82
2023/07/13 08:57:14;;;;;;;0.80;0.50;;;;;;;29.56;36.62;101541.81;4977186;28;100551;-82
2023/07/13 08:59:42;;;;;;;0.30;0.30;;;;;;;29.55;36.64;101540.97;4971327;28;96840;-83
2023/07/13 09:02:18;;;;;;;0.50;0.30;;;;;;;29.57;36.35;101541.59;4980381;28;97002;-83
2023/07/13 09:04:54;;;;;;;0.47;0.38;;;;;;;29.56;36.44;101550.97;4974269;28;100202;-82
2023/07/13 09:07:46;;;;;;;0.80;0.40;;;;;;;29.58;36.60;101539.69;4990196;28;97940;-83
2023/07/13 09:10:34;;;;;;;0.43;0.30;;;;;;;29.56;36.56;101542.69;4990445;28;96696;-82
2023/07/13 09:13:06;;;;;;;0.40;0.40;;;;;;;29.56;36.56;101541.81;4990811;28;96679;-82
2023/07/13 09:16:00;;;;;;;0.40;0.40;;;;;;;29.57;36.51;101540.75;4980696;28;98539;-82
2023/07/13 09:18:33;;;;;;;0.55;0.32;;;;;;;29.56;36.47;101534.38;4974352;28;96822;-83
2023/07/13 09:21:07;;;;;;;0.70;0.50;;;;;;;29.57;36.46;101529.69;4980139;28;96842;-82
2023/07/13 09:23:35;;;;;;;0.30;0.22;;;;;;;29.56;36.57;101534.38;4975815;28;96955;-82
2023/07/13 09:26:22;;;;;;;0.43;0.40;;;;;;;29.58;36.47;101534.16;4982735;28;98471;-83
2023/07/13 09:28:55;;;;;;;1.17;0.50;;;;;;;29.56;36.44;101537.13;4990169;28;99858;-82
2023/07/13 09:31:37;;;;;;;0.50;0.40;;;;;;;29.58;36.56;101540.53;4971915;28;96627;-82
2023/07/13 09:34:10;;;;;;;0.80;0.30;;;;;;;29.57;36.25;101533.31;4965281;28;97114;-83
2023/07/13 09:36:36;;;;;;;0.40;0.40;;;;;;;29.57;36.46;101541.59;4964245;28;98919;-82
2023/07/13 09:39:12;;;;;;;0.43;0.40;;;;;;;29.58;36.60;101548.84;4989665;28;97393;-82
2023/07/13 09:41:55;;;;;;;0.63;0.30;;;;;;;29.58;36.46;101543.31;4983596;28;96787;-83
2023/07/13 09:44:35;;;;;;;1.23;0.82;;;;;;;29.57;36.47;101536.06;4977120;28;96931;-82
2023/07/13 09:47:03;;;;;;;0.40;0.40;;;;;;;29.57;36.41;101540.75;4967995;28;98483;-84
2023/07/13 09:49:35;;;;;;;0.43;0.30;;;;;;;29.59;36.28;101539.47;4968862;28;98662;-82
2023/07/13 09:52:10;;;;;;;0.68;0.50;;;;;;;29.59;36.30;101530.31;4963771;28;97189;-84
2023/07/13 09:54:37;;;;;;;0.70;0.38;;;;;;;29.59;36.29;101542.25;4961196;28;97273;-86
2023/07/13 09:57:16;;;;;;;0.38;0.38;;;;;;;29.61;36.32;101539.25;4976080;28;96985;-82
2023/07/13 09:59:48;;;;;;;0.50;0.30;;;;;;;29.59;36.55;101541.38;4986669;28;98577;-81
2023/07/13 10:02:34;;;;;;;1.02;0.40;;;;;;;29.60;36.40;101543.94;4970011;28;96743;-81
2023/07/13 10:05:03;;;;;;;0.57;0.40;;;;;;;29.59;36.52;101538.63;4998375;28;96977;-82
2023/07/13 10:07:31;;;;;;;0.30;0.20;;;;;;;29.60;36.34;101538.41;4971543;28;98891;-81
2023/07/13 10:10:02;;;;;;;0.57;0.40;;;;;;;29.61;36.38;101544.78;4989808;28;98708;-83
2023/07/13 10:12:35;;;;;;;0.30;0.30;;;;;;;29.60;36.36;101543.94;4982848;28;96805;-82
2023/07/13 10:15:03;;;;;;;0.73;0.40;;;;;;;29.60;36.54;101548.63;4981964;28;97082;-82
2023/07/13 10:17:50;;;;;;;0.55;0.40;;;;;;;29.60;36.37;101548.63;4974352;28;98985;-82
2023/07/13 10:20:17;;;;;;;0.50;0.40;;;;;;;29.60;36.51;101546.72;4985640;28;97601;-82
2023/07/13 10:23:02;;;;;;;0.50;0.40;;;;;;;29.61;36.40;101542.88;5001105;28;96740;-81
2023/07/13 10:25:38;;;;;;;0.50;0.32;;;;;;;29.61;36.59;101548.41;4983422;28;96730;-82
2023/07/13 10:28:36;;;;;;;0.40;0.30;;;;;;;29.61;36.36;101545.63;4985831;28;96991;-82
2023/07/13 10:31:11;;;;;;;0.50;0.32;;;;;;;29.59;36.51;101541.38;4968165;28;96933;-84
2023/07/13 10:33:39;;;;;;;0.50;0.40;;;;;;;29.59;36.62;101555.22;4971337;28;97071;-81
2023/07/13 10:36:45;;;;;;;0.45;0.30;;;;;;;29.60;36.67;101538.41;4984769;28;97065;-85
2023/07/13 10:39:32;;;;;;;0.70;0.40;;;;;;;29.60;36.44;101545.84;4969154;28;99266;-82
2023/07/13 10:42:02;;;;;;;0.68;0.57;;;;;;;29.59;36.28;101545.00;4983301;28;97874;-82
2023/07/13 10:44:31;;;;;;;0.50;0.40;;;;;;;29.60;36.43;101541.16;4984835;28;96891;-82
2023/07/13 10:47:02;;;;;;;0.40;0.30;;;;;;;29.61;36.60;101547.56;4981994;28;96712;-81
2023/07/13 10:49:31;;;;;;;0.40;0.30;;;;;;;29.61;36.38;101548.41;4979346;28;96971;-82
2023/07/13 10:51:58;;;;;;;0.50;0.30;;;;;;;29.61;36.36;101553.94;4986952;28;97203;-82
2023/07/13 10:54:32;;;;;;;0.82;0.43;;;;;;;29.62;36.33;101552.03;4985480;28;97092;-82
2023/07/13 10:57:19;;;;;;;0.60;0.50;;;;;;;29.62;36.22;101552.88;4985600;28;96754;-81
2023/07/13 11:00:17;;;;;;;0.75;0.50;;;;;;;29.61;36.28;101565.03;4983601;28;96873;-81
2023/07/13 11:02:57;;;;;;;0.55;0.52;;;;;;;29.61;36.23;101575.25;4986589;28;96833;-83
2023/07/13 11:05:31;;;;;;;0.65;0.50;;;;;;;29.61;36.28;101559.47;4987208;28;96811;-82
2023/07/13 11:08:31;;;;;;;0.70;0.50;;;;;;;29.62;36.43;101557.56;4988622;28;97127;-82
2023/07/13 11:10:58;;;;;;;0.32;0.30;;;;;;;29.59;36.49;101569.91;4984798;28;97165;-82
2023/07/13 11:13:45;;;;;;;0.57;0.50;;;;;;;29.63;36.43;101559.25;4985689;28;96800;-82
2023/07/13 11:16:44;;;;;;;1.13;0.50;;;;;;;29.62;36.59;101563.09;4985918;28;96770;-83
2023/07/13 11:19:10;;;;;;;0.45;0.40;;;;;;;29.59;36.41;101574.59;4960075;28;96692;-82
2023/07/13 11:22:07;;;;;;;0.40;0.30;;;;;;;29.60;36.53;101588.22;4985596;28;97216;-82
2023/07/13 11:24:52;;;;;;;0.60;0.52;;;;;;;29.61;36.32;101611.22;4977207;28;97724;-82
2023/07/13 11:27:38;;;;;;;1.02;0.45;;;;;;;29.61;36.22;101622.28;4970848;28;96832;-82
2023/07/13 11:30:31;;;;;;;0.60;0.40;;;;;;;29.60;36.39;101615.91;4990075;28;96735;-83
2023/07/13 11:33:07;;;;;;;0.55;0.40;;;;;;;29.59;36.35;101613.34;4960681;28;96860;-82
2023/07/13 11:35:42;;;;;;;0.52;0.40;;;;;;;29.59;36.40;101614.22;4979976;28;97352;-82
2023/07/13 11:38:17;;;;;;;0.50;0.40;;;;;;;29.59;36.28;101618.91;4979274;28;97400;-82
2023/07/13 11:40:46;;;;;;;0.75;0.45;;;;;;;29.60;36.14;101618.69;4984302;28;96892;-81